Erie International Tom Ridge Field
KERI : rendu visible

Aérodrome :











RETROUVEZ-NOUS SUR...

 
LOGIN :

S'inscrire | Disclaimer

   EN    FR    IT 

 









Légende :    VFR   VFR Marginal   IFR   IFR Intensif   IFR Très Intensif
Visi : 
Plafond : 
>= 8 km
>= 3000ft
5 à 8 km
1000 à 3000 ft
1500m à 5 km
500 à 1000 ft
800 à 1500m
200 à 500 ft
< 800m
< 200 ft
Symboles :   Orages  Brouillard  Fortes neiges  Fortes précipitations  Vent > 20 kt






- Altitude de l'aérodrome : 733 ft
- Code IATA : ERI


KERI - Erie International Tom Ridge Field

DERNIER METAR :
  • 221951Z 28006KT 10SM CLR 06/M07 A3021 RMK AO2 SLP236 T00561072

METARs EXPIRÉS :
  • 221851Z 26007KT 210V290 10SM CLR 05/M06 A3022 RMK AO2 SLP239 T00501061
  • 221751Z 23009G17KT 10SM CLR 05/M09 A3024 RMK AO2 SLP248 T00501094 10050 21028 58014

TAF KERI
Valide du 22 à 18h jusqu'au 23 à 18h UTC


221730Z 2218/2318 22012G20KT P6SM SKC
FM230000 21010KT P6SM SCT200
FM231500 20012G20KT P6SM SKC



MET'MAP, la Météo Aéronautique d'un coup d'oeil ! - Copyright ORBIFLY Décembre 2007 - Disclaimer

ORBIFLY MET'MAP TEAM :

Programmation & Développement : Alexandra Zaïnal
Sur une idée originale de : Baudouin d'Aumeries
Assistance à la programmation : Marc-Olivier Méhu
Soutien technique & logistique : Manuel Goepfert

Contact : metmap@orbifly.com




SOURCES & CREDITS :

   NOAA       Earth
Advisory